sensor_id;sensor_type;location;lat;lon;timestamp;temperature;humidity
68691;DHT22;55675;49.588;8.640;2023-06-26T00:01:27;22.40;55.90
68691;DHT22;55675;49.588;8.640;2023-06-26T00:03:56;22.30;55.80
68691;DHT22;55675;49.588;8.640;2023-06-26T00:06:24;22.30;56.00
68691;DHT22;55675;49.588;8.640;2023-06-26T00:08:50;22.20;56.40
68691;DHT22;55675;49.588;8.640;2023-06-26T00:11:15;22.20;56.30
68691;DHT22;55675;49.588;8.640;2023-06-26T00:13:41;22.10;56.50
68691;DHT22;55675;49.588;8.640;2023-06-26T00:16:07;22.10;56.40
68691;DHT22;55675;49.588;8.640;2023-06-26T00:18:32;22.00;56.40
68691;DHT22;55675;49.588;8.640;2023-06-26T00:20:58;22.00;56.60
68691;DHT22;55675;49.588;8.640;2023-06-26T00:23:23;22.00;56.80
68691;DHT22;55675;49.588;8.640;2023-06-26T00:25:48;21.90;57.10
68691;DHT22;55675;49.588;8.640;2023-06-26T00:28:14;21.90;57.00
68691;DHT22;55675;49.588;8.640;2023-06-26T00:30:39;21.80;57.00
68691;DHT22;55675;49.588;8.640;2023-06-26T00:33:05;21.80;57.00
68691;DHT22;55675;49.588;8.640;2023-06-26T00:35:30;21.80;57.10
68691;DHT22;55675;49.588;8.640;2023-06-26T00:37:56;21.80;57.10
68691;DHT22;55675;49.588;8.640;2023-06-26T00:40:21;21.70;57.10
68691;DHT22;55675;49.588;8.640;2023-06-26T00:42:47;21.70;57.10
68691;DHT22;55675;49.588;8.640;2023-06-26T00:45:12;21.70;57.40
68691;DHT22;55675;49.588;8.640;2023-06-26T00:47:37;21.70;57.40
68691;DHT22;55675;49.588;8.640;2023-06-26T00:50:03;21.70;57.60
68691;DHT22;55675;49.588;8.640;2023-06-26T00:52:29;21.60;57.90
68691;DHT22;55675;49.588;8.640;2023-06-26T00:54:55;21.50;58.30
68691;DHT22;55675;49.588;8.640;2023-06-26T00:57:20;21.50;58.30
68691;DHT22;55675;49.588;8.640;2023-06-26T00:59:46;21.40;59.60
68691;DHT22;55675;49.588;8.640;2023-06-26T01:02:11;21.40;59.70
68691;DHT22;55675;49.588;8.640;2023-06-26T01:04:37;21.30;59.40
68691;DHT22;55675;49.588;8.640;2023-06-26T01:07:02;21.30;59.40
68691;DHT22;55675;49.588;8.640;2023-06-26T01:09:29;21.30;59.40
68691;DHT22;55675;49.588;8.640;2023-06-26T01:11:54;21.30;59.30
68691;DHT22;55675;49.588;8.640;2023-06-26T01:14:20;21.30;60.50
68691;DHT22;55675;49.588;8.640;2023-06-26T01:16:45;21.30;60.40
68691;DHT22;55675;49.588;8.640;2023-06-26T01:19:19;21.30;60.90
68691;DHT22;55675;49.588;8.640;2023-06-26T01:21:50;21.30;60.60
68691;DHT22;55675;49.588;8.640;2023-06-26T01:24:17;21.30;60.60
68691;DHT22;55675;49.588;8.640;2023-06-26T01:26:48;21.30;60.60
68691;DHT22;55675;49.588;8.640;2023-06-26T01:29:14;21.20;60.70
68691;DHT22;55675;49.588;8.640;2023-06-26T01:31:40;21.20;60.80
68691;DHT22;55675;49.588;8.640;2023-06-26T01:34:06;21.20;61.00
68691;DHT22;55675;49.588;8.640;2023-06-26T01:36:31;21.20;61.10
68691;DHT22;55675;49.588;8.640;2023-06-26T01:38:57;21.10;61.90
68691;DHT22;55675;49.588;8.640;2023-06-26T01:41:22;21.10;62.30
68691;DHT22;55675;49.588;8.640;2023-06-26T01:46:27;20.90;63.80
68691;DHT22;55675;49.588;8.640;2023-06-26T01:48:57;20.80;63.40
68691;DHT22;55675;49.588;8.640;2023-06-26T01:51:26;20.70;63.40
68691;DHT22;55675;49.588;8.640;2023-06-26T01:53:53;20.70;63.70
68691;DHT22;55675;49.588;8.640;2023-06-26T01:56:20;20.60;64.20
68691;DHT22;55675;49.588;8.640;2023-06-26T01:58:47;20.50;63.90
68691;DHT22;55675;49.588;8.640;2023-06-26T02:01:13;20.50;64.10
68691;DHT22;55675;49.588;8.640;2023-06-26T02:03:38;20.50;64.50
68691;DHT22;55675;49.588;8.640;2023-06-26T02:06:04;20.40;64.50
68691;DHT22;55675;49.588;8.640;2023-06-26T02:08:29;20.30;64.70
68691;DHT22;55675;49.588;8.640;2023-06-26T02:10:55;20.30;64.80
68691;DHT22;55675;49.588;8.640;2023-06-26T02:13:20;20.30;65.60
68691;DHT22;55675;49.588;8.640;2023-06-26T02:15:45;20.20;65.40
68691;DHT22;55675;49.588;8.640;2023-06-26T02:18:11;20.20;65.40
68691;DHT22;55675;49.588;8.640;2023-06-26T02:20:36;20.10;65.70
68691;DHT22;55675;49.588;8.640;2023-06-26T02:23:02;20.10;65.90
68691;DHT22;55675;49.588;8.640;2023-06-26T02:25:27;20.10;66.40
68691;DHT22;55675;49.588;8.640;2023-06-26T02:27:53;20.00;66.90
68691;DHT22;55675;49.588;8.640;2023-06-26T02:30:18;19.90;69.50
68691;DHT22;55675;49.588;8.640;2023-06-26T02:32:44;19.90;71.20
68691;DHT22;55675;49.588;8.640;2023-06-26T02:35:10;19.80;71.50
68691;DHT22;55675;49.588;8.640;2023-06-26T02:37:35;19.70;70.50
68691;DHT22;55675;49.588;8.640;2023-06-26T02:40:01;19.70;69.90
68691;DHT22;55675;49.588;8.640;2023-06-26T02:42:28;19.60;69.70
68691;DHT22;55675;49.588;8.640;2023-06-26T02:44:54;19.60;69.70
68691;DHT22;55675;49.588;8.640;2023-06-26T02:47:19;19.60;69.90
68691;DHT22;55675;49.588;8.640;2023-06-26T02:49:45;19.60;70.00
68691;DHT22;55675;49.588;8.640;2023-06-26T02:52:10;19.60;70.00
68691;DHT22;55675;49.588;8.640;2023-06-26T02:54:36;19.60;70.60
68691;DHT22;55675;49.588;8.640;2023-06-26T02:57:01;19.60;70.10
68691;DHT22;55675;49.588;8.640;2023-06-26T02:59:26;19.60;70.10
68691;DHT22;55675;49.588;8.640;2023-06-26T03:01:52;19.60;70.60
68691;DHT22;55675;49.588;8.640;2023-06-26T03:04:17;19.60;70.70
68691;DHT22;55675;49.588;8.640;2023-06-26T03:06:43;19.50;70.60
68691;DHT22;55675;49.588;8.640;2023-06-26T03:09:08;19.50;70.50
68691;DHT22;55675;49.588;8.640;2023-06-26T03:11:34;19.50;70.50
68691;DHT22;55675;49.588;8.640;2023-06-26T03:13:59;19.50;70.50
68691;DHT22;55675;49.588;8.640;2023-06-26T03:16:25;19.40;70.50
68691;DHT22;55675;49.588;8.640;2023-06-26T03:18:50;19.40;70.60
68691;DHT22;55675;49.588;8.640;2023-06-26T03:21:17;19.40;70.70
68691;DHT22;55675;49.588;8.640;2023-06-26T03:23:42;19.40;70.70
68691;DHT22;55675;49.588;8.640;2023-06-26T03:26:08;19.40;70.80
68691;DHT22;55675;49.588;8.640;2023-06-26T03:28:33;19.40;70.90
68691;DHT22;55675;49.588;8.640;2023-06-26T03:30:59;19.40;71.40
68691;DHT22;55675;49.588;8.640;2023-06-26T03:33:24;19.40;71.50
68691;DHT22;55675;49.588;8.640;2023-06-26T03:35:50;19.40;71.20
68691;DHT22;55675;49.588;8.640;2023-06-26T03:38:15;19.30;71.40
68691;DHT22;55675;49.588;8.640;2023-06-26T03:40:40;19.30;71.90
68691;DHT22;55675;49.588;8.640;2023-06-26T03:43:06;19.30;72.10
68691;DHT22;55675;49.588;8.640;2023-06-26T03:45:31;19.30;73.00
68691;DHT22;55675;49.588;8.640;2023-06-26T03:47:57;19.30;72.20
68691;DHT22;55675;49.588;8.640;2023-06-26T03:50:23;19.30;72.30
68691;DHT22;55675;49.588;8.640;2023-06-26T03:52:48;19.30;73.10
68691;DHT22;55675;49.588;8.640;2023-06-26T03:55:15;19.20;74.30
68691;DHT22;55675;49.588;8.640;2023-06-26T03:57:41;19.20;73.50
68691;DHT22;55675;49.588;8.640;2023-06-26T04:00:06;19.20;73.40
68691;DHT22;55675;49.588;8.640;2023-06-26T04:02:36;19.20;73.40
68691;DHT22;55675;49.588;8.640;2023-06-26T04:05:02;19.20;74.20
68691;DHT22;55675;49.588;8.640;2023-06-26T04:07:29;19.20;73.40
68691;DHT22;55675;49.588;8.640;2023-06-26T04:09:54;19.20;73.50
68691;DHT22;55675;49.588;8.640;2023-06-26T04:12:20;19.30;73.40
68691;DHT22;55675;49.588;8.640;2023-06-26T04:14:45;19.30;73.50
68691;DHT22;55675;49.588;8.640;2023-06-26T04:17:11;19.30;73.80
68691;DHT22;55675;49.588;8.640;2023-06-26T04:19:36;19.30;73.90
68691;DHT22;55675;49.588;8.640;2023-06-26T04:22:02;19.40;74.40
68691;DHT22;55675;49.588;8.640;2023-06-26T04:24:28;19.50;75.00
68691;DHT22;55675;49.588;8.640;2023-06-26T04:26:53;19.60;74.90
68691;DHT22;55675;49.588;8.640;2023-06-26T04:29:22;19.70;74.50
68691;DHT22;55675;49.588;8.640;2023-06-26T04:31:53;19.80;74.70
68691;DHT22;55675;49.588;8.640;2023-06-26T04:34:26;19.90;74.50
68691;DHT22;55675;49.588;8.640;2023-06-26T04:36:52;20.00;74.40
68691;DHT22;55675;49.588;8.640;2023-06-26T04:39:17;20.20;74.40
68691;DHT22;55675;49.588;8.640;2023-06-26T04:41:44;20.20;73.90
68691;DHT22;55675;49.588;8.640;2023-06-26T04:44:09;20.30;73.60
68691;DHT22;55675;49.588;8.640;2023-06-26T04:46:35;20.40;73.70
68691;DHT22;55675;49.588;8.640;2023-06-26T04:49:00;20.50;73.50
68691;DHT22;55675;49.588;8.640;2023-06-26T04:51:28;20.50;74.90
68691;DHT22;55675;49.588;8.640;2023-06-26T04:53:54;20.50;74.90
68691;DHT22;55675;49.588;8.640;2023-06-26T04:56:19;20.60;74.60
68691;DHT22;55675;49.588;8.640;2023-06-26T04:58:45;20.70;74.20
68691;DHT22;55675;49.588;8.640;2023-06-26T05:01:10;20.80;73.80
68691;DHT22;55675;49.588;8.640;2023-06-26T05:03:38;20.90;73.70
68691;DHT22;55675;49.588;8.640;2023-06-26T05:06:04;21.00;73.30
68691;DHT22;55675;49.588;8.640;2023-06-26T05:08:29;21.20;72.60
68691;DHT22;55675;49.588;8.640;2023-06-26T05:10:55;21.30;72.30
68691;DHT22;55675;49.588;8.640;2023-06-26T05:13:24;21.40;72.20
68691;DHT22;55675;49.588;8.640;2023-06-26T05:15:49;21.50;71.80
68691;DHT22;55675;49.588;8.640;2023-06-26T05:18:15;21.50;71.60
68691;DHT22;55675;49.588;8.640;2023-06-26T05:20:41;21.60;71.40
68691;DHT22;55675;49.588;8.640;2023-06-26T05:23:06;21.70;71.80
68691;DHT22;55675;49.588;8.640;2023-06-26T05:25:32;21.80;72.40
68691;DHT22;55675;49.588;8.640;2023-06-26T05:27:59;21.80;71.90
68691;DHT22;55675;49.588;8.640;2023-06-26T05:30:25;21.90;71.60
68691;DHT22;55675;49.588;8.640;2023-06-26T05:32:51;22.10;71.30
68691;DHT22;55675;49.588;8.640;2023-06-26T05:35:16;22.20;70.10
68691;DHT22;55675;49.588;8.640;2023-06-26T05:37:42;22.40;69.80
68691;DHT22;55675;49.588;8.640;2023-06-26T05:40:08;22.50;69.40
68691;DHT22;55675;49.588;8.640;2023-06-26T05:42:34;22.60;68.90
68691;DHT22;55675;49.588;8.640;2023-06-26T05:45:00;22.70;68.60
68691;DHT22;55675;49.588;8.640;2023-06-26T05:47:25;22.90;68.40
68691;DHT22;55675;49.588;8.640;2023-06-26T05:49:50;23.00;68.00
68691;DHT22;55675;49.588;8.640;2023-06-26T05:52:16;23.20;67.80
68691;DHT22;55675;49.588;8.640;2023-06-26T05:54:42;23.30;67.30
68691;DHT22;55675;49.588;8.640;2023-06-26T05:57:07;23.50;66.50
68691;DHT22;55675;49.588;8.640;2023-06-26T05:59:33;23.60;65.80
68691;DHT22;55675;49.588;8.640;2023-06-26T06:01:59;23.70;65.40
68691;DHT22;55675;49.588;8.640;2023-06-26T06:04:25;23.90;64.40
68691;DHT22;55675;49.588;8.640;2023-06-26T06:06:51;24.00;64.00
68691;DHT22;55675;49.588;8.640;2023-06-26T06:09:16;24.10;63.60
68691;DHT22;55675;49.588;8.640;2023-06-26T06:11:42;24.20;62.80
68691;DHT22;55675;49.588;8.640;2023-06-26T06:14:07;24.30;61.90
68691;DHT22;55675;49.588;8.640;2023-06-26T06:16:33;24.50;61.90
68691;DHT22;55675;49.588;8.640;2023-06-26T06:18:58;24.60;61.50
68691;DHT22;55675;49.588;8.640;2023-06-26T06:21:24;24.70;60.90
68691;DHT22;55675;49.588;8.640;2023-06-26T06:23:49;24.80;59.60
68691;DHT22;55675;49.588;8.640;2023-06-26T06:26:15;24.90;59.40
68691;DHT22;55675;49.588;8.640;2023-06-26T06:28:40;25.00;58.30
68691;DHT22;55675;49.588;8.640;2023-06-26T06:31:05;25.00;57.50
68691;DHT22;55675;49.588;8.640;2023-06-26T06:33:31;25.20;56.10
68691;DHT22;55675;49.588;8.640;2023-06-26T06:35:57;25.30;55.70
68691;DHT22;55675;49.588;8.640;2023-06-26T06:38:22;25.30;54.70
68691;DHT22;55675;49.588;8.640;2023-06-26T06:40:48;25.40;54.50
68691;DHT22;55675;49.588;8.640;2023-06-26T06:43:13;25.50;53.90
68691;DHT22;55675;49.588;8.640;2023-06-26T06:45:38;25.60;54.00
68691;DHT22;55675;49.588;8.640;2023-06-26T06:48:04;25.70;53.30
68691;DHT22;55675;49.588;8.640;2023-06-26T06:50:29;25.80;52.70
68691;DHT22;55675;49.588;8.640;2023-06-26T06:52:55;25.80;52.40
68691;DHT22;55675;49.588;8.640;2023-06-26T06:55:20;25.90;52.30
68691;DHT22;55675;49.588;8.640;2023-06-26T06:57:46;26.00;51.40
68691;DHT22;55675;49.588;8.640;2023-06-26T07:00:12;26.10;51.60
68691;DHT22;55675;49.588;8.640;2023-06-26T07:02:40;26.20;51.50
68691;DHT22;55675;49.588;8.640;2023-06-26T07:05:05;26.20;51.10
68691;DHT22;55675;49.588;8.640;2023-06-26T07:07:31;26.30;50.80
68691;DHT22;55675;49.588;8.640;2023-06-26T07:10:04;26.40;50.30
68691;DHT22;55675;49.588;8.640;2023-06-26T07:12:30;26.40;50.20
68691;DHT22;55675;49.588;8.640;2023-06-26T07:14:56;26.50;50.20
68691;DHT22;55675;49.588;8.640;2023-06-26T07:17:21;26.60;49.70
68691;DHT22;55675;49.588;8.640;2023-06-26T07:19:47;26.70;49.60
68691;DHT22;55675;49.588;8.640;2023-06-26T07:22:13;26.70;49.40
68691;DHT22;55675;49.588;8.640;2023-06-26T07:24:38;26.80;49.60
68691;DHT22;55675;49.588;8.640;2023-06-26T07:27:04;26.90;49.10
68691;DHT22;55675;49.588;8.640;2023-06-26T07:29:29;27.00;49.10
68691;DHT22;55675;49.588;8.640;2023-06-26T07:31:55;27.00;49.10
68691;DHT22;55675;49.588;8.640;2023-06-26T07:34:20;27.10;48.90
68691;DHT22;55675;49.588;8.640;2023-06-26T07:36:45;27.20;48.50
68691;DHT22;55675;49.588;8.640;2023-06-26T07:39:11;27.30;48.30
68691;DHT22;55675;49.588;8.640;2023-06-26T07:41:36;27.30;48.90
68691;DHT22;55675;49.588;8.640;2023-06-26T07:44:02;27.40;48.60
68691;DHT22;55675;49.588;8.640;2023-06-26T07:46:27;27.50;48.10
68691;DHT22;55675;49.588;8.640;2023-06-26T07:48:53;27.50;47.90
68691;DHT22;55675;49.588;8.640;2023-06-26T07:51:19;27.60;47.90
68691;DHT22;55675;49.588;8.640;2023-06-26T07:53:44;27.70;47.90
68691;DHT22;55675;49.588;8.640;2023-06-26T07:56:10;27.70;47.80
68691;DHT22;55675;49.588;8.640;2023-06-26T07:58:35;27.80;47.40
68691;DHT22;55675;49.588;8.640;2023-06-26T08:01:01;27.80;47.10
68691;DHT22;55675;49.588;8.640;2023-06-26T08:03:26;28.00;47.00
68691;DHT22;55675;49.588;8.640;2023-06-26T08:05:52;28.00;46.70
68691;DHT22;55675;49.588;8.640;2023-06-26T08:08:17;28.10;47.10
68691;DHT22;55675;49.588;8.640;2023-06-26T08:10:43;28.20;46.80
68691;DHT22;55675;49.588;8.640;2023-06-26T08:13:08;28.30;47.10
68691;DHT22;55675;49.588;8.640;2023-06-26T08:15:34;28.50;46.40
68691;DHT22;55675;49.588;8.640;2023-06-26T08:17:59;28.50;46.00
68691;DHT22;55675;49.588;8.640;2023-06-26T08:20:25;28.50;46.40
68691;DHT22;55675;49.588;8.640;2023-06-26T08:22:50;28.60;46.40
68691;DHT22;55675;49.588;8.640;2023-06-26T08:25:17;28.70;46.20
68691;DHT22;55675;49.588;8.640;2023-06-26T08:27:43;28.90;46.00
68691;DHT22;55675;49.588;8.640;2023-06-26T08:30:08;29.00;44.50
68691;DHT22;55675;49.588;8.640;2023-06-26T08:32:34;29.20;44.60
68691;DHT22;55675;49.588;8.640;2023-06-26T08:34:59;29.30;44.40
68691;DHT22;55675;49.588;8.640;2023-06-26T08:37:25;29.40;44.20
68691;DHT22;55675;49.588;8.640;2023-06-26T08:39:50;29.50;44.20
68691;DHT22;55675;49.588;8.640;2023-06-26T08:42:16;29.70;44.40
68691;DHT22;55675;49.588;8.640;2023-06-26T08:44:41;29.90;42.80
68691;DHT22;55675;49.588;8.640;2023-06-26T08:47:07;30.10;43.20
68691;DHT22;55675;49.588;8.640;2023-06-26T08:52:12;30.40;41.70
68691;DHT22;55675;49.588;8.640;2023-06-26T08:54:40;30.40;40.80
68691;DHT22;55675;49.588;8.640;2023-06-26T08:57:08;30.50;41.60
68691;DHT22;55675;49.588;8.640;2023-06-26T08:59:33;30.50;40.50
68691;DHT22;55675;49.588;8.640;2023-06-26T09:01:59;30.70;41.00
68691;DHT22;55675;49.588;8.640;2023-06-26T09:04:24;30.90;40.10
68691;DHT22;55675;49.588;8.640;2023-06-26T09:06:50;31.10;38.90
68691;DHT22;55675;49.588;8.640;2023-06-26T09:09:15;31.20;38.40
68691;DHT22;55675;49.588;8.640;2023-06-26T09:11:41;31.10;39.30
68691;DHT22;55675;49.588;8.640;2023-06-26T09:14:07;31.00;39.40
68691;DHT22;55675;49.588;8.640;2023-06-26T09:16:39;30.80;39.50
68691;DHT22;55675;49.588;8.640;2023-06-26T09:19:09;31.00;39.40
68691;DHT22;55675;49.588;8.640;2023-06-26T09:21:35;31.00;39.90
68691;DHT22;55675;49.588;8.640;2023-06-26T09:24:00;30.90;38.80
68691;DHT22;55675;49.588;8.640;2023-06-26T09:26:26;30.80;39.20
68691;DHT22;55675;49.588;8.640;2023-06-26T09:28:51;30.70;39.50
68691;DHT22;55675;49.588;8.640;2023-06-26T09:31:17;30.70;39.80
68691;DHT22;55675;49.588;8.640;2023-06-26T09:33:42;30.60;39.50
68691;DHT22;55675;49.588;8.640;2023-06-26T09:36:19;30.60;39.90
68691;DHT22;55675;49.588;8.640;2023-06-26T09:38:45;30.60;40.00
68691;DHT22;55675;49.588;8.640;2023-06-26T09:41:10;30.70;40.20
68691;DHT22;55675;49.588;8.640;2023-06-26T09:43:45;30.70;39.30
68691;DHT22;55675;49.588;8.640;2023-06-26T09:46:14;30.60;38.80
68691;DHT22;55675;49.588;8.640;2023-06-26T09:48:40;30.70;40.00
68691;DHT22;55675;49.588;8.640;2023-06-26T09:51:05;30.80;40.00
68691;DHT22;55675;49.588;8.640;2023-06-26T09:53:31;30.80;38.80
68691;DHT22;55675;49.588;8.640;2023-06-26T09:56:04;30.80;38.50
68691;DHT22;55675;49.588;8.640;2023-06-26T09:58:30;30.90;38.90
68691;DHT22;55675;49.588;8.640;2023-06-26T10:00:56;31.00;38.80
68691;DHT22;55675;49.588;8.640;2023-06-26T10:03:21;31.20;38.90
68691;DHT22;55675;49.588;8.640;2023-06-26T10:05:47;31.30;38.10
68691;DHT22;55675;49.588;8.640;2023-06-26T10:08:13;31.50;37.80
68691;DHT22;55675;49.588;8.640;2023-06-26T10:10:39;31.70;37.50
68691;DHT22;55675;49.588;8.640;2023-06-26T10:13:08;32.10;37.20
68691;DHT22;55675;49.588;8.640;2023-06-26T10:15:35;32.20;36.60
68691;DHT22;55675;49.588;8.640;2023-06-26T10:18:01;32.20;36.40
68691;DHT22;55675;49.588;8.640;2023-06-26T10:20:27;32.20;36.40
68691;DHT22;55675;49.588;8.640;2023-06-26T10:22:53;32.40;36.40
68691;DHT22;55675;49.588;8.640;2023-06-26T10:25:20;32.70;36.40
68691;DHT22;55675;49.588;8.640;2023-06-26T10:27:52;32.80;35.30
68691;DHT22;55675;49.588;8.640;2023-06-26T10:30:20;32.80;35.70
68691;DHT22;55675;49.588;8.640;2023-06-26T10:32:47;32.90;35.80
68691;DHT22;55675;49.588;8.640;2023-06-26T10:35:13;32.80;35.60
68691;DHT22;55675;49.588;8.640;2023-06-26T10:37:42;32.70;35.70
68691;DHT22;55675;49.588;8.640;2023-06-26T10:40:09;32.60;35.90
68691;DHT22;55675;49.588;8.640;2023-06-26T10:42:35;32.60;36.20
68691;DHT22;55675;49.588;8.640;2023-06-26T10:45:13;32.60;36.10
68691;DHT22;55675;49.588;8.640;2023-06-26T10:47:39;32.50;36.20
68691;DHT22;55675;49.588;8.640;2023-06-26T10:52:44;32.70;36.40
68691;DHT22;55675;49.588;8.640;2023-06-26T10:55:09;32.60;36.50
68691;DHT22;55675;49.588;8.640;2023-06-26T10:57:38;32.50;36.80
68691;DHT22;55675;49.588;8.640;2023-06-26T11:00:09;32.40;37.50
68691;DHT22;55675;49.588;8.640;2023-06-26T11:02:48;32.40;37.40
68691;DHT22;55675;49.588;8.640;2023-06-26T11:05:23;32.40;36.70
68691;DHT22;55675;49.588;8.640;2023-06-26T11:08:04;32.70;36.90
68691;DHT22;55675;49.588;8.640;2023-06-26T11:10:33;32.90;36.30
68691;DHT22;55675;49.588;8.640;2023-06-26T11:13:12;32.90;36.20
68691;DHT22;55675;49.588;8.640;2023-06-26T11:15:38;32.90;36.10
68691;DHT22;55675;49.588;8.640;2023-06-26T11:18:04;32.60;36.30
68691;DHT22;55675;49.588;8.640;2023-06-26T11:20:29;32.60;36.40
68691;DHT22;55675;49.588;8.640;2023-06-26T11:22:54;32.60;36.80
68691;DHT22;55675;49.588;8.640;2023-06-26T11:25:21;32.70;37.10
68691;DHT22;55675;49.588;8.640;2023-06-26T11:27:46;32.70;37.30
68691;DHT22;55675;49.588;8.640;2023-06-26T11:30:22;32.80;36.70
68691;DHT22;55675;49.588;8.640;2023-06-26T11:32:48;32.70;36.80
68691;DHT22;55675;49.588;8.640;2023-06-26T11:35:13;32.60;36.70
68691;DHT22;55675;49.588;8.640;2023-06-26T11:37:47;32.60;36.90
68691;DHT22;55675;49.588;8.640;2023-06-26T11:40:16;33.00;36.90
68691;DHT22;55675;49.588;8.640;2023-06-26T11:42:41;33.20;36.50
68691;DHT22;55675;49.588;8.640;2023-06-26T11:45:08;33.50;35.70
68691;DHT22;55675;49.588;8.640;2023-06-26T11:47:34;33.60;36.00
68691;DHT22;55675;49.588;8.640;2023-06-26T11:50:00;33.90;35.80
68691;DHT22;55675;49.588;8.640;2023-06-26T11:52:29;33.90;35.20
68691;DHT22;55675;49.588;8.640;2023-06-26T11:54:54;33.80;35.30
68691;DHT22;55675;49.588;8.640;2023-06-26T11:57:20;33.80;35.30
68691;DHT22;55675;49.588;8.640;2023-06-26T11:59:45;33.80;35.20
68691;DHT22;55675;49.588;8.640;2023-06-26T12:02:13;33.80;35.30
68691;DHT22;55675;49.588;8.640;2023-06-26T12:04:40;33.90;35.40
68691;DHT22;55675;49.588;8.640;2023-06-26T12:07:06;33.90;35.10
68691;DHT22;55675;49.588;8.640;2023-06-26T12:09:34;33.90;34.70
68691;DHT22;55675;49.588;8.640;2023-06-26T12:12:03;34.00;34.80
68691;DHT22;55675;49.588;8.640;2023-06-26T12:14:29;34.10;34.00
68691;DHT22;55675;49.588;8.640;2023-06-26T12:16:54;34.20;33.90
68691;DHT22;55675;49.588;8.640;2023-06-26T12:19:26;34.00;33.80
68691;DHT22;55675;49.588;8.640;2023-06-26T12:21:52;33.60;32.70
68691;DHT22;55675;49.588;8.640;2023-06-26T12:24:19;33.40;33.10
68691;DHT22;55675;49.588;8.640;2023-06-26T12:26:45;33.30;32.30
68691;DHT22;55675;49.588;8.640;2023-06-26T12:29:12;33.20;32.70
68691;DHT22;55675;49.588;8.640;2023-06-26T12:31:41;33.20;32.70
68691;DHT22;55675;49.588;8.640;2023-06-26T12:34:10;33.10;32.90
68691;DHT22;55675;49.588;8.640;2023-06-26T12:36:43;33.10;33.30
68691;DHT22;55675;49.588;8.640;2023-06-26T12:39:10;33.20;32.40
68691;DHT22;55675;49.588;8.640;2023-06-26T12:44:31;33.60;32.50
68691;DHT22;55675;49.588;8.640;2023-06-26T12:46:59;33.70;30.80
68691;DHT22;55675;49.588;8.640;2023-06-26T12:49:31;33.60;31.20
68691;DHT22;55675;49.588;8.640;2023-06-26T12:52:01;33.70;30.70
68691;DHT22;55675;49.588;8.640;2023-06-26T12:54:27;33.80;29.90
68691;DHT22;55675;49.588;8.640;2023-06-26T12:56:53;33.90;30.00
68691;DHT22;55675;49.588;8.640;2023-06-26T12:59:18;34.00;29.90
68691;DHT22;55675;49.588;8.640;2023-06-26T13:01:44;33.80;29.30
68691;DHT22;55675;49.588;8.640;2023-06-26T13:04:09;33.70;29.70
68691;DHT22;55675;49.588;8.640;2023-06-26T13:06:35;33.70;29.40
68691;DHT22;55675;49.588;8.640;2023-06-26T13:09:01;33.60;29.20
68691;DHT22;55675;49.588;8.640;2023-06-26T13:11:32;33.50;29.40
68691;DHT22;55675;49.588;8.640;2023-06-26T13:13:58;33.70;29.50
68691;DHT22;55675;49.588;8.640;2023-06-26T13:16:23;33.90;28.90
68691;DHT22;55675;49.588;8.640;2023-06-26T13:18:49;33.90;28.40
68691;DHT22;55675;49.588;8.640;2023-06-26T13:21:14;34.00;28.50
68691;DHT22;55675;49.588;8.640;2023-06-26T13:23:40;34.00;28.00
68691;DHT22;55675;49.588;8.640;2023-06-26T13:26:06;34.20;27.80
68691;DHT22;55675;49.588;8.640;2023-06-26T13:28:31;34.10;27.30
68691;DHT22;55675;49.588;8.640;2023-06-26T13:30:57;34.20;26.90
68691;DHT22;55675;49.588;8.640;2023-06-26T13:33:26;34.20;27.30
68691;DHT22;55675;49.588;8.640;2023-06-26T13:35:52;34.30;26.50
68691;DHT22;55675;49.588;8.640;2023-06-26T13:38:21;34.20;26.20
68691;DHT22;55675;49.588;8.640;2023-06-26T13:40:52;34.40;26.30
68691;DHT22;55675;49.588;8.640;2023-06-26T13:43:18;34.40;26.00
68691;DHT22;55675;49.588;8.640;2023-06-26T13:45:43;34.30;26.10
68691;DHT22;55675;49.588;8.640;2023-06-26T13:48:09;34.30;26.60
68691;DHT22;55675;49.588;8.640;2023-06-26T13:50:35;34.30;26.30
68691;DHT22;55675;49.588;8.640;2023-06-26T13:53:00;34.60;25.80
68691;DHT22;55675;49.588;8.640;2023-06-26T13:55:27;34.90;25.70
68691;DHT22;55675;49.588;8.640;2023-06-26T13:57:52;35.30;25.60
68691;DHT22;55675;49.588;8.640;2023-06-26T14:00:18;36.30;24.50
68691;DHT22;55675;49.588;8.640;2023-06-26T14:02:46;37.70;23.70
68691;DHT22;55675;49.588;8.640;2023-06-26T14:05:11;38.60;22.70
68691;DHT22;55675;49.588;8.640;2023-06-26T14:07:37;39.40;22.40
68691;DHT22;55675;49.588;8.640;2023-06-26T14:10:03;40.30;21.20
68691;DHT22;55675;49.588;8.640;2023-06-26T14:12:29;41.00;20.40
68691;DHT22;55675;49.588;8.640;2023-06-26T14:14:54;41.50;19.50
68691;DHT22;55675;49.588;8.640;2023-06-26T14:17:20;41.80;18.20
68691;DHT22;55675;49.588;8.640;2023-06-26T14:19:45;41.60;17.70
68691;DHT22;55675;49.588;8.640;2023-06-26T14:22:11;41.40;18.60
68691;DHT22;55675;49.588;8.640;2023-06-26T14:24:38;41.60;18.30
68691;DHT22;55675;49.588;8.640;2023-06-26T14:27:03;41.60;18.50
68691;DHT22;55675;49.588;8.640;2023-06-26T14:29:29;41.00;19.00
68691;DHT22;55675;49.588;8.640;2023-06-26T14:31:55;40.70;19.70
68691;DHT22;55675;49.588;8.640;2023-06-26T14:34:20;39.90;20.30
68691;DHT22;55675;49.588;8.640;2023-06-26T14:36:45;39.20;20.60
68691;DHT22;55675;49.588;8.640;2023-06-26T14:39:11;38.70;20.60
68691;DHT22;55675;49.588;8.640;2023-06-26T14:41:37;38.00;21.30
68691;DHT22;55675;49.588;8.640;2023-06-26T14:44:02;37.30;21.40
68691;DHT22;55675;49.588;8.640;2023-06-26T14:46:28;36.90;21.80
68691;DHT22;55675;49.588;8.640;2023-06-26T14:48:53;38.00;22.00
68691;DHT22;55675;49.588;8.640;2023-06-26T14:51:20;40.30;21.00
68691;DHT22;55675;49.588;8.640;2023-06-26T14:53:46;41.90;19.40
68691;DHT22;55675;49.588;8.640;2023-06-26T14:56:12;43.60;18.50
68691;DHT22;55675;49.588;8.640;2023-06-26T14:58:38;44.60;17.60
68691;DHT22;55675;49.588;8.640;2023-06-26T15:01:03;45.70;17.20
68691;DHT22;55675;49.588;8.640;2023-06-26T15:03:29;46.90;16.10
68691;DHT22;55675;49.588;8.640;2023-06-26T15:05:54;47.80;15.50
68691;DHT22;55675;49.588;8.640;2023-06-26T15:08:20;48.00;14.90
68691;DHT22;55675;49.588;8.640;2023-06-26T15:10:45;47.10;15.00
68691;DHT22;55675;49.588;8.640;2023-06-26T15:13:11;46.60;15.40
68691;DHT22;55675;49.588;8.640;2023-06-26T15:15:36;46.20;15.20
68691;DHT22;55675;49.588;8.640;2023-06-26T15:18:02;44.60;15.70
68691;DHT22;55675;49.588;8.640;2023-06-26T15:20:27;42.90;16.70
68691;DHT22;55675;49.588;8.640;2023-06-26T15:22:53;42.40;17.30
68691;DHT22;55675;49.588;8.640;2023-06-26T15:25:18;42.30;17.40
68691;DHT22;55675;49.588;8.640;2023-06-26T15:27:43;43.10;17.40
68691;DHT22;55675;49.588;8.640;2023-06-26T15:30:09;43.40;16.90
68691;DHT22;55675;49.588;8.640;2023-06-26T15:32:35;44.30;16.90
68691;DHT22;55675;49.588;8.640;2023-06-26T15:35:01;45.30;15.90